Terminal Aerodrome Forecast
Issued by NWS

Home | Current Version | Previous Version | Text Only | Print | Product List | Glossary On
Versions: 1 2 3 4 5 6 7 8 9 10 11 12 13 14 15
539
FTUS46 KHNX 221139
TAFFAT
TAF
KFAT 221139Z 2212/2312 VRB03KT P6SM SCT200
     FM231000 VRB03KT 4SM BR SKC=

USA.gov is the U.S. government's official web portal to all federal, state and local government web resources and services.